createdAt,value
2023-04-02T00:00:54.018Z,234.76
2023-04-02T00:01:54.121Z,234.89
2023-04-02T00:02:54.201Z,231.11
2023-04-02T00:03:54.345Z,221.13
2023-04-02T00:04:54.229Z,210.50
2023-04-02T00:05:54.159Z,209.60
2023-04-02T00:06:54.230Z,209.69
2023-04-02T00:07:54.223Z,209.89
2023-04-02T00:08:54.193Z,211.34
2023-04-02T00:09:54.244Z,208.61
2023-04-02T00:10:54.161Z,199.08
2023-04-02T00:11:54.164Z,210.53
2023-04-02T00:12:54.128Z,212.13
2023-04-02T00:13:54.182Z,212.28
2023-04-02T00:14:54.120Z,212.82
2023-04-02T00:15:54.129Z,212.80
2023-04-02T00:16:54.139Z,212.96
2023-04-02T00:17:54.175Z,210.17
2023-04-02T00:18:54.207Z,208.53
2023-04-02T00:19:54.126Z,211.94
2023-04-02T00:20:54.128Z,213.86
2023-04-02T00:21:54.161Z,217.16
2023-04-02T00:22:54.079Z,214.87
2023-04-02T00:23:54.092Z,214.42
2023-04-02T00:24:54.052Z,220.54
2023-04-02T00:25:54.087Z,220.85
2023-04-02T00:26:54.174Z,220.96
2023-04-02T00:27:54.104Z,206.03
2023-04-02T00:28:54.785Z,203.37
2023-04-02T00:29:54.121Z,205.38
2023-04-02T00:30:54.034Z,208.87
2023-04-02T00:31:54.116Z,210.91
2023-04-02T00:32:54.174Z,223.06
2023-04-02T00:33:54.055Z,231.86
2023-04-02T00:34:54.915Z,234.27
2023-04-02T00:35:54.109Z,232.63
2023-04-02T00:36:53.992Z,229.78
2023-04-02T00:37:54.019Z,228.23
2023-04-02T00:38:54.005Z,225.01
2023-04-02T00:39:53.965Z,223.77
2023-04-02T00:40:54.009Z,215.89
2023-04-02T00:41:53.993Z,215.10
2023-04-02T00:43:01.553Z,214.33
2023-04-02T00:43:53.958Z,213.81
2023-04-02T00:44:54.011Z,213.79
2023-04-02T00:45:53.998Z,214.38
2023-04-02T00:46:53.958Z,214.83
2023-04-02T00:47:53.975Z,216.21
2023-04-02T00:48:53.977Z,217.10
2023-04-02T00:49:53.939Z,212.72
2023-04-02T00:50:53.957Z,209.15
2023-04-02T00:51:53.943Z,207.83
2023-04-02T00:52:53.945Z,207.96
2023-04-02T00:53:54.925Z,207.07
2023-04-02T00:54:53.871Z,207.29
2023-04-02T00:55:53.853Z,207.76
2023-04-02T00:56:53.914Z,202.24
2023-04-02T00:57:53.944Z,202.88
2023-04-02T00:58:53.847Z,203.14
2023-04-02T00:59:53.851Z,207.95
2023-04-02T01:00:53.865Z,202.04
2023-04-02T01:01:53.808Z,195.74
2023-04-02T01:02:53.978Z,194.35
2023-04-02T01:03:53.913Z,196.24
2023-04-02T01:04:53.845Z,198.86
2023-04-02T01:05:53.929Z,201.30
2023-04-02T01:06:53.854Z,201.80
2023-04-02T01:07:53.907Z,205.56
2023-04-02T01:08:53.835Z,207.47
2023-04-02T01:09:54.387Z,209.37
2023-04-02T01:10:53.860Z,209.73
2023-04-02T01:11:53.882Z,206.68
2023-04-02T01:12:53.877Z,205.66
2023-04-02T01:13:53.868Z,199.81
2023-04-02T01:14:53.868Z,203.19
2023-04-02T01:15:53.957Z,202.10
2023-04-02T01:16:54.113Z,202.74
2023-04-02T01:17:53.919Z,203.12
2023-04-02T01:18:53.975Z,204.96
2023-04-02T01:19:53.924Z,205.48
2023-04-02T01:20:53.945Z,203.46
2023-04-02T01:21:53.954Z,201.63
2023-04-02T01:22:54.002Z,203.08
2023-04-02T01:23:54.006Z,204.86
2023-04-02T01:24:53.958Z,205.45
2023-04-02T01:25:53.966Z,209.68
2023-04-02T01:26:53.968Z,211.32
2023-04-02T01:27:53.967Z,211.97
2023-04-02T01:28:53.966Z,212.02
2023-04-02T01:29:54.051Z,211.99
2023-04-02T01:30:54.004Z,212.24
2023-04-02T01:31:53.940Z,212.62
2023-04-02T01:32:54.020Z,211.01
2023-04-02T01:33:53.932Z,211.79
2023-04-02T01:34:54.017Z,206.71
2023-04-02T01:35:53.960Z,208.66
2023-04-02T01:36:53.861Z,209.37
2023-04-02T01:37:53.899Z,207.19
2023-04-02T01:38:53.885Z,207.88
2023-04-02T01:39:53.891Z,210.53
2023-04-02T01:40:53.919Z,212.14
2023-04-02T01:41:53.879Z,214.09
2023-04-02T01:42:53.879Z,214.37
2023-04-02T01:43:54.398Z,209.32
2023-04-02T01:44:53.894Z,205.72
2023-04-02T01:45:53.878Z,205.83
2023-04-02T01:46:55.257Z,200.12
2023-04-02T01:47:53.980Z,198.26
2023-04-02T01:48:53.982Z,200.81
2023-04-02T01:49:53.911Z,203.16
2023-04-02T01:50:53.896Z,206.18
2023-04-02T01:51:53.874Z,211.35
2023-04-02T01:52:54.352Z,209.60
2023-04-02T01:53:53.902Z,206.00
2023-04-02T01:54:53.881Z,200.56
2023-04-02T01:55:53.869Z,198.47
2023-04-02T01:56:53.994Z,198.55
2023-04-02T01:57:53.976Z,198.81
2023-04-02T01:58:53.881Z,202.47
2023-04-02T01:59:53.976Z,207.82
2023-04-02T02:00:53.962Z,212.86
2023-04-02T02:01:53.897Z,209.36
2023-04-02T02:02:53.948Z,203.98
2023-04-02T02:03:53.907Z,200.41
2023-04-02T02:04:53.895Z,199.50
2023-04-02T02:05:53.907Z,200.38
2023-04-02T02:06:53.833Z,200.66
2023-04-02T02:07:53.922Z,199.80
2023-04-02T02:08:54.025Z,200.13
2023-04-02T02:09:54.009Z,202.21
2023-04-02T02:10:54.074Z,203.72
2023-04-02T02:11:54.012Z,224.66
2023-04-02T02:12:54.042Z,234.58
2023-04-02T02:13:54.097Z,241.06
2023-04-02T02:14:54.184Z,244.63
2023-04-02T02:15:54.133Z,245.11
2023-04-02T02:16:54.180Z,243.53
2023-04-02T02:17:54.338Z,240.94
2023-04-02T02:18:54.198Z,242.39
2023-04-02T02:19:54.212Z,241.87
2023-04-02T02:20:54.169Z,241.26
2023-04-02T02:21:54.249Z,244.61
2023-04-02T02:22:54.206Z,248.95
2023-04-02T02:23:54.177Z,247.13
2023-04-02T02:24:55.014Z,244.42
2023-04-02T02:25:54.207Z,234.95
2023-04-02T02:26:54.265Z,236.82
2023-04-02T02:27:54.957Z,238.63
2023-04-02T02:28:54.274Z,236.63
2023-04-02T02:29:54.292Z,235.57
2023-04-02T02:30:54.213Z,235.82
2023-04-02T02:31:54.190Z,235.36
2023-04-02T02:32:54.370Z,235.06
2023-04-02T02:33:54.210Z,231.10
2023-04-02T02:34:54.202Z,230.57
2023-04-02T02:35:54.161Z,231.62
2023-04-02T02:36:54.200Z,233.38
2023-04-02T02:37:54.277Z,234.31
2023-04-02T02:38:54.520Z,236.22
2023-04-02T02:39:54.361Z,236.03
2023-04-02T02:40:54.369Z,236.46
2023-04-02T02:41:54.386Z,236.87
2023-04-02T02:42:54.487Z,236.08
2023-04-02T02:43:54.516Z,235.61
2023-04-02T02:44:54.589Z,232.84
2023-04-02T02:45:54.633Z,230.78
2023-04-02T02:46:54.650Z,230.22
2023-04-02T02:47:54.738Z,230.92
2023-04-02T02:48:54.742Z,227.58
2023-04-02T02:49:54.690Z,224.52
2023-04-02T02:50:54.656Z,226.87
2023-04-02T02:51:54.786Z,229.00
2023-04-02T02:52:54.953Z,231.25
2023-04-02T02:53:54.866Z,231.45
2023-04-02T02:54:54.885Z,231.48
2023-04-02T02:55:54.888Z,229.33
2023-04-02T02:56:55.014Z,229.70
2023-04-02T02:57:54.856Z,229.87
2023-04-02T02:58:54.919Z,230.27
2023-04-02T02:59:54.840Z,228.18
2023-04-02T03:00:54.861Z,224.66
2023-04-02T03:01:54.829Z,228.22
2023-04-02T03:02:55.061Z,230.72
2023-04-02T03:03:55.016Z,232.27
2023-04-02T03:04:54.980Z,233.55
2023-04-02T03:05:54.965Z,233.56
2023-04-02T03:06:55.067Z,233.58
2023-04-02T03:07:55.105Z,233.69
2023-04-02T03:08:55.137Z,233.40
2023-04-02T03:09:55.181Z,232.87
2023-04-02T03:10:55.184Z,234.36
2023-04-02T03:11:55.222Z,235.19
2023-04-02T03:12:55.222Z,236.58
2023-04-02T03:13:55.212Z,238.56
2023-04-02T03:14:55.228Z,238.58
2023-04-02T03:15:55.267Z,238.56
2023-04-02T03:16:55.235Z,238.27
2023-04-02T03:17:55.342Z,237.13
2023-04-02T03:18:55.280Z,236.38
2023-04-02T03:19:55.300Z,235.49
2023-04-02T03:20:55.256Z,234.32
2023-04-02T03:21:55.304Z,233.77
2023-04-02T03:22:55.324Z,230.16
2023-04-02T03:23:55.305Z,225.59
2023-04-02T03:24:55.315Z,222.27
2023-04-02T03:25:55.318Z,226.66
2023-04-02T03:26:55.411Z,235.12
2023-04-02T03:27:55.340Z,235.56
2023-04-02T03:28:55.349Z,234.61
2023-04-02T03:29:55.414Z,233.82
2023-04-02T03:30:55.403Z,233.48
2023-04-02T03:31:55.360Z,233.79
2023-04-02T03:32:55.401Z,235.88
2023-04-02T03:33:55.377Z,235.17
2023-04-02T03:34:55.361Z,235.40
2023-04-02T03:35:55.344Z,237.02
2023-04-02T03:36:55.359Z,236.69
2023-04-02T03:37:55.316Z,237.03
2023-04-02T03:38:55.301Z,237.49
2023-04-02T03:39:55.336Z,239.86
2023-04-02T03:40:55.345Z,242.79
2023-04-02T03:41:55.329Z,247.58
2023-04-02T03:42:55.414Z,247.18
2023-04-02T03:43:55.296Z,245.76
2023-04-02T03:44:55.295Z,245.81
2023-04-02T03:45:55.315Z,246.13
2023-04-02T03:46:55.281Z,246.79
2023-04-02T03:47:55.290Z,248.32
2023-04-02T03:48:55.363Z,249.85
2023-04-02T03:49:55.261Z,249.46
2023-04-02T03:50:55.263Z,249.69
2023-04-02T03:51:55.294Z,251.13
2023-04-02T03:52:55.236Z,251.13
2023-04-02T03:53:55.280Z,246.17
2023-04-02T03:54:55.284Z,239.92
2023-04-02T03:55:55.278Z,238.34
2023-04-02T03:56:55.410Z,232.67
2023-04-02T03:57:55.323Z,238.39
2023-04-02T03:58:55.337Z,240.44
2023-04-02T03:59:55.270Z,242.05
2023-04-02T04:00:55.248Z,240.99
2023-04-02T04:01:55.363Z,240.69
2023-04-02T04:02:55.374Z,239.91
2023-04-02T04:03:55.336Z,239.69
2023-04-02T04:04:55.346Z,242.37
2023-04-02T04:05:55.236Z,243.40
2023-04-02T04:06:55.216Z,243.21
2023-04-02T04:07:55.220Z,245.07
2023-04-02T04:08:55.282Z,246.15
2023-04-02T04:09:55.333Z,247.61
2023-04-02T04:10:55.445Z,246.69
2023-04-02T04:11:55.413Z,246.14
2023-04-02T04:12:55.445Z,246.15
2023-04-02T04:13:55.452Z,249.28
2023-04-02T04:14:55.553Z,248.78
2023-04-02T04:15:55.550Z,247.94
2023-04-02T04:16:55.702Z,246.99
2023-04-02T04:17:55.616Z,244.35
2023-04-02T04:18:55.547Z,241.99
2023-04-02T04:19:55.537Z,240.49
2023-04-02T04:20:55.492Z,241.89
2023-04-02T04:21:55.552Z,243.03
2023-04-02T04:22:55.466Z,243.20
2023-04-02T04:23:55.478Z,243.24
2023-04-02T04:24:55.493Z,244.25
2023-04-02T04:25:55.448Z,246.00
2023-04-02T04:26:55.486Z,245.47
2023-04-02T04:27:55.448Z,245.96
2023-04-02T04:28:55.431Z,245.28
2023-04-02T04:29:56.411Z,245.31
2023-04-02T04:30:55.437Z,245.45
2023-04-02T04:31:55.655Z,245.89
2023-04-02T04:32:55.452Z,247.25
2023-04-02T04:33:55.450Z,249.05
2023-04-02T04:34:55.427Z,249.39
2023-04-02T04:35:55.398Z,246.81
2023-04-02T04:36:55.382Z,244.33
2023-04-02T04:37:55.488Z,241.69
2023-04-02T04:38:55.388Z,239.93
2023-04-02T04:39:55.406Z,239.93
2023-04-02T04:40:55.403Z,240.06
2023-04-02T04:41:55.406Z,240.60
2023-04-02T04:42:55.333Z,241.91
2023-04-02T04:43:55.373Z,244.44
2023-04-02T04:44:55.445Z,244.90
2023-04-02T04:45:55.377Z,245.35
2023-04-02T04:46:55.348Z,246.03
2023-04-02T04:47:55.391Z,245.46
2023-04-02T04:48:55.968Z,245.40
2023-04-02T04:49:55.425Z,245.02
2023-04-02T04:50:55.418Z,243.81
2023-04-02T04:51:55.547Z,244.15
2023-04-02T04:52:55.498Z,244.47
2023-04-02T04:53:55.527Z,244.51
2023-04-02T04:54:55.475Z,244.71
2023-04-02T04:55:55.573Z,244.77
2023-04-02T04:56:55.449Z,244.88
2023-04-02T04:57:55.537Z,245.06
2023-04-02T04:58:55.548Z,244.23
2023-04-02T04:59:55.455Z,244.54
2023-04-02T05:00:55.432Z,244.91
2023-04-02T05:01:55.499Z,240.91
2023-04-02T05:02:55.417Z,239.83
2023-04-02T05:03:55.464Z,239.01
2023-04-02T05:04:55.508Z,238.22
2023-04-02T05:05:55.391Z,236.28
2023-04-02T05:06:55.413Z,236.48
2023-04-02T05:07:56.759Z,237.76
2023-04-02T05:08:55.529Z,237.72
2023-04-02T05:09:55.625Z,237.38
2023-04-02T05:10:55.709Z,236.35
2023-04-02T05:11:55.693Z,235.75
2023-04-02T05:12:55.759Z,237.12
2023-04-02T05:13:55.856Z,237.98
2023-04-02T05:14:55.857Z,239.07
2023-04-02T05:15:55.836Z,236.95
2023-04-02T05:16:55.792Z,236.92
2023-04-02T05:17:55.891Z,238.09
2023-04-02T05:18:55.786Z,239.02
2023-04-02T05:19:55.860Z,239.89
2023-04-02T05:20:55.757Z,240.65
2023-04-02T05:21:55.827Z,242.43
2023-04-02T05:22:55.810Z,242.86
2023-04-02T05:23:55.768Z,244.79
2023-04-02T05:24:55.784Z,246.53
2023-04-02T05:25:55.754Z,246.34
2023-04-02T05:26:55.743Z,247.15
2023-04-02T05:27:55.837Z,246.53
2023-04-02T05:28:55.758Z,245.32
2023-04-02T05:29:55.706Z,244.05
2023-04-02T05:30:55.777Z,242.24
2023-04-02T05:31:55.823Z,242.23
2023-04-02T05:32:55.831Z,239.85
2023-04-02T05:33:55.826Z,238.94
2023-04-02T05:34:55.872Z,239.63
2023-04-02T05:35:55.904Z,237.52
2023-04-02T05:36:55.816Z,233.52
2023-04-02T05:37:55.873Z,232.65
2023-04-02T05:38:56.004Z,232.38
2023-04-02T05:39:55.931Z,232.61
2023-04-02T05:40:55.950Z,232.94
2023-04-02T05:41:56.004Z,233.95
2023-04-02T05:42:56.580Z,234.93
2023-04-02T05:43:56.163Z,234.98
2023-04-02T05:44:56.237Z,235.48
2023-04-02T05:45:56.303Z,231.10
2023-04-02T05:46:56.475Z,230.44
2023-04-02T05:47:56.443Z,242.35
2023-04-02T05:48:56.495Z,242.74
2023-04-02T05:49:56.521Z,241.96
2023-04-02T05:50:56.526Z,241.52
2023-04-02T05:51:57.611Z,242.86
2023-04-02T05:52:56.588Z,242.47
2023-04-02T05:53:56.624Z,243.20
2023-04-02T05:54:56.688Z,242.70
2023-04-02T05:55:56.662Z,242.76
2023-04-02T05:56:56.730Z,242.62
2023-04-02T05:58:21.229Z,242.79
2023-04-02T05:58:57.733Z,242.71
2023-04-02T05:59:56.661Z,242.74
2023-04-02T06:00:56.632Z,242.66
2023-04-02T06:01:56.658Z,242.37
2023-04-02T06:02:56.780Z,241.76
2023-04-02T06:03:56.752Z,242.15
2023-04-02T06:04:56.733Z,242.21
2023-04-02T06:05:56.658Z,242.39
2023-04-02T06:06:56.685Z,242.60
2023-04-02T06:07:56.636Z,242.55
2023-04-02T06:08:56.642Z,242.13
2023-04-02T06:09:56.636Z,241.93
2023-04-02T06:10:57.676Z,240.98
2023-04-02T06:11:56.768Z,239.42
2023-04-02T06:12:56.742Z,239.49
2023-04-02T06:13:56.697Z,239.91
2023-04-02T06:14:56.751Z,240.50
2023-04-02T06:15:56.752Z,240.00
2023-04-02T06:16:56.803Z,239.50
2023-04-02T06:17:56.726Z,238.65
2023-04-02T06:18:56.688Z,238.09
2023-04-02T06:19:56.767Z,238.14
2023-04-02T06:20:56.672Z,238.12
2023-04-02T06:21:56.631Z,238.24
2023-04-02T06:22:56.633Z,237.33
2023-04-02T06:23:56.786Z,234.81
2023-04-02T06:24:56.655Z,236.56
2023-04-02T06:25:56.612Z,237.25
2023-04-02T06:26:56.671Z,237.97
2023-04-02T06:27:56.630Z,238.38
2023-04-02T06:28:56.726Z,239.98
2023-04-02T06:29:56.640Z,234.85
2023-04-02T06:30:56.627Z,237.12
2023-04-02T06:31:56.584Z,234.05
2023-04-02T06:32:56.634Z,229.83
2023-04-02T06:33:56.606Z,231.13
2023-04-02T06:34:56.789Z,232.41
2023-04-02T06:35:56.690Z,232.06
2023-04-02T06:36:56.689Z,232.83
2023-04-02T06:37:56.699Z,234.05
2023-04-02T06:38:56.754Z,229.30
2023-04-02T06:39:56.794Z,227.35
2023-04-02T06:40:58.745Z,221.22
2023-04-02T06:41:56.800Z,223.41
2023-04-02T06:42:56.922Z,215.42
2023-04-02T06:43:56.931Z,218.57
2023-04-02T06:44:56.992Z,223.43
2023-04-02T06:45:56.986Z,223.92
2023-04-02T06:46:58.004Z,223.92
2023-04-02T06:47:57.182Z,222.50
2023-04-02T06:48:57.085Z,221.57
2023-04-02T06:49:57.128Z,223.23
2023-04-02T06:50:57.019Z,222.42
2023-04-02T06:51:56.998Z,220.57
2023-04-02T06:52:57.103Z,224.90
2023-04-02T06:53:57.018Z,225.68
2023-04-02T06:54:57.068Z,222.85
2023-04-02T06:55:57.089Z,216.38
2023-04-02T06:56:56.962Z,214.00
2023-04-02T06:57:56.980Z,214.45
2023-04-02T06:58:56.984Z,209.64
2023-04-02T06:59:56.955Z,209.70
2023-04-02T07:00:57.444Z,210.29
2023-04-02T07:01:57.032Z,211.60
2023-04-02T07:02:57.067Z,209.80
2023-04-02T07:03:56.981Z,210.77
2023-04-02T07:04:57.025Z,211.99
2023-04-02T07:05:56.914Z,212.46
2023-04-02T07:06:56.922Z,202.55
2023-04-02T07:07:56.996Z,215.13
2023-04-02T07:08:56.913Z,211.82
2023-04-02T07:09:56.873Z,211.93
2023-04-02T07:10:56.845Z,212.01
2023-04-02T07:11:56.876Z,211.90
2023-04-02T07:12:56.882Z,213.94
2023-04-02T07:13:56.871Z,213.82
2023-04-02T07:14:56.849Z,211.82
2023-04-02T07:15:56.864Z,207.81
2023-04-02T07:16:56.939Z,207.02
2023-04-02T07:17:56.889Z,208.33
2023-04-02T07:18:56.818Z,205.37
2023-04-02T07:19:56.847Z,205.85
2023-04-02T07:20:56.817Z,204.59
2023-04-02T07:21:56.841Z,199.07
2023-04-02T07:22:56.847Z,191.75
2023-04-02T07:23:56.887Z,177.78
2023-04-02T07:24:56.821Z,178.19
2023-04-02T07:25:56.817Z,179.63
2023-04-02T07:26:56.789Z,181.75
2023-04-02T07:27:56.813Z,185.18
2023-04-02T07:28:56.805Z,180.66
2023-04-02T07:29:56.800Z,170.34
2023-04-02T07:30:56.781Z,173.90
2023-04-02T07:31:56.858Z,173.95
2023-04-02T07:32:56.900Z,174.56
2023-04-02T07:33:56.872Z,175.12
2023-04-02T07:34:56.798Z,176.91
2023-04-02T07:35:56.812Z,175.62
2023-04-02T07:36:56.772Z,174.58
2023-04-02T07:37:56.801Z,176.84
2023-04-02T07:38:56.831Z,171.95
2023-04-02T07:39:56.744Z,170.93
2023-04-02T07:40:56.789Z,165.00
2023-04-02T07:41:56.790Z,165.25
2023-04-02T07:42:56.824Z,170.44
2023-04-02T07:43:56.845Z,174.96
2023-04-02T07:44:56.878Z,176.92
2023-04-02T07:45:56.910Z,174.99
2023-04-02T07:46:56.960Z,171.76
2023-04-02T07:47:56.979Z,169.51
2023-04-02T07:48:57.021Z,169.07
2023-04-02T07:49:57.124Z,161.64
2023-04-02T07:50:57.030Z,161.92
2023-04-02T07:51:57.023Z,162.03
2023-04-02T07:52:57.038Z,164.93
2023-04-02T07:53:57.051Z,168.75
2023-04-02T07:54:57.068Z,175.66
2023-04-02T07:55:57.050Z,172.82
2023-04-02T07:56:57.098Z,167.58
2023-04-02T07:57:57.131Z,166.19
2023-04-02T07:58:57.042Z,166.21
2023-04-02T07:59:57.159Z,164.09
2023-04-02T08:00:57.071Z,152.98
2023-04-02T08:01:57.118Z,151.49
2023-04-02T08:02:57.239Z,148.10
2023-04-02T08:03:57.031Z,144.47
2023-04-02T08:04:57.065Z,140.82
2023-04-02T08:05:56.903Z,158.32
2023-04-02T08:06:56.922Z,149.51
2023-04-02T08:07:57.080Z,148.04
2023-04-02T08:08:57.009Z,142.53
2023-04-02T08:09:56.924Z,153.75
2023-04-02T08:10:57.462Z,144.28
2023-04-02T08:11:57.636Z,159.16
2023-04-02T08:12:56.964Z,147.87
2023-04-02T08:13:56.924Z,140.83
2023-04-02T08:14:56.969Z,119.92
2023-04-02T08:15:56.878Z,116.40
2023-04-02T08:16:56.921Z,93.64
2023-04-02T08:17:57.005Z,93.16
2023-04-02T08:18:56.910Z,85.79
2023-04-02T08:19:56.878Z,86.53
2023-04-02T08:20:56.991Z,75.67
2023-04-02T08:21:56.869Z,73.80
2023-04-02T08:22:56.951Z,76.75
2023-04-02T08:23:56.970Z,91.86
2023-04-02T08:24:56.958Z,99.84
2023-04-02T08:25:56.950Z,99.88
2023-04-02T08:26:56.960Z,100.50
2023-04-02T08:27:57.486Z,102.66
2023-04-02T08:28:57.016Z,104.62
2023-04-02T08:29:57.283Z,108.32
2023-04-02T08:30:56.993Z,113.66
2023-04-02T08:31:56.963Z,102.78
2023-04-02T08:32:57.017Z,73.40
2023-04-02T08:33:56.971Z,62.27
2023-04-02T08:34:56.980Z,59.76
2023-04-02T08:35:56.916Z,64.13
2023-04-02T08:36:56.847Z,64.98
2023-04-02T08:37:56.917Z,68.94
2023-04-02T08:38:56.973Z,72.89
2023-04-02T08:39:56.856Z,77.30
2023-04-02T08:40:57.751Z,84.95
2023-04-02T08:41:56.950Z,86.29
2023-04-02T08:42:56.955Z,77.80
2023-04-02T08:43:56.997Z,77.35
2023-04-02T08:44:57.199Z,71.91
2023-04-02T08:45:57.194Z,79.92
2023-04-02T08:46:57.169Z,79.94
2023-04-02T08:47:57.241Z,80.16
2023-04-02T08:48:57.220Z,81.94
2023-04-02T08:49:57.123Z,81.98
2023-04-02T08:50:57.072Z,98.61
2023-04-02T08:51:57.097Z,98.86
2023-04-02T08:52:57.086Z,139.36
2023-04-02T08:53:58.069Z,113.50
2023-04-02T08:54:57.067Z,100.44
2023-04-02T08:55:58.004Z,85.48
2023-04-02T08:56:57.931Z,82.19
2023-04-02T08:57:57.093Z,78.91
2023-04-02T08:58:56.981Z,71.87
2023-04-02T08:59:57.046Z,74.08
2023-04-02T09:00:57.023Z,74.14
2023-04-02T09:01:57.060Z,74.98
2023-04-02T09:02:57.023Z,74.18
2023-04-02T09:03:57.014Z,73.04
2023-04-02T09:04:57.057Z,72.61
2023-04-02T09:05:57.092Z,74.60
2023-04-02T09:06:56.940Z,83.83
2023-04-02T09:07:57.031Z,94.81
2023-04-02T09:08:56.977Z,88.49
2023-04-02T09:09:56.944Z,67.16
2023-04-02T09:10:56.970Z,54.70
2023-04-02T09:11:56.945Z,51.59
2023-04-02T09:12:56.962Z,54.74
2023-04-02T09:13:56.935Z,56.84
2023-04-02T09:14:57.462Z,58.37
2023-04-02T09:15:56.918Z,62.74
2023-04-02T09:16:56.907Z,64.92
2023-04-02T09:17:58.986Z,56.02
2023-04-02T09:18:56.906Z,54.99
2023-04-02T09:19:56.950Z,61.63
2023-04-02T09:20:56.961Z,57.28
2023-04-02T09:21:56.919Z,52.42
2023-04-02T09:22:56.937Z,45.39
2023-04-02T09:23:57.002Z,52.26
2023-04-02T09:24:56.855Z,43.41
2023-04-02T09:26:04.184Z,33.76
2023-04-02T09:26:57.881Z,33.87
2023-04-02T09:27:56.871Z,24.62
2023-04-02T09:28:56.869Z,24.50
2023-04-02T09:29:56.894Z,31.96
2023-04-02T09:30:56.852Z,50.67
2023-04-02T09:31:56.902Z,35.72
2023-04-02T09:32:57.038Z,39.80
2023-04-02T09:33:56.949Z,26.05
2023-04-02T09:34:56.849Z,25.55
2023-04-02T09:35:56.861Z,17.73
2023-04-02T09:36:56.834Z,24.89
2023-04-02T09:37:56.769Z,28.01
2023-04-02T09:38:56.902Z,31.03
2023-04-02T09:39:56.846Z,27.49
2023-04-02T09:40:56.825Z,27.81
2023-04-02T09:42:04.915Z,30.70
2023-04-02T09:42:57.752Z,29.80
2023-04-02T09:43:56.778Z,31.55
2023-04-02T09:44:56.772Z,33.45
2023-04-02T09:45:56.759Z,40.37
2023-04-02T09:46:56.812Z,32.17
2023-04-02T09:47:56.782Z,33.31
2023-04-02T09:48:56.710Z,23.80
2023-04-02T09:49:56.722Z,20.78
2023-04-02T09:50:56.953Z,27.32
2023-04-02T09:51:56.796Z,35.80
2023-04-02T09:52:56.858Z,32.52
2023-04-02T09:53:56.894Z,34.27
2023-04-02T09:54:56.894Z,18.92
2023-04-02T09:55:56.899Z,25.81
2023-04-02T09:56:56.989Z,25.00
2023-04-02T09:57:57.014Z,21.40
2023-04-02T09:58:57.103Z,16.37
2023-04-02T09:59:57.060Z,22.01
2023-04-02T10:00:57.117Z,32.27
2023-04-02T10:01:57.101Z,31.36
2023-04-02T10:02:57.145Z,25.70
2023-04-02T10:03:57.226Z,26.55
2023-04-02T10:04:57.184Z,35.06
2023-04-02T10:05:57.280Z,36.34
2023-04-02T10:06:57.247Z,37.62
2023-04-02T10:07:57.242Z,51.23
2023-04-02T10:08:57.313Z,56.21
2023-04-02T10:09:57.354Z,48.67
2023-04-02T10:10:57.318Z,44.55
2023-04-02T10:11:57.261Z,48.40
2023-04-02T10:12:57.291Z,49.43
2023-04-02T10:13:57.289Z,49.87
2023-04-02T10:14:57.356Z,62.30
2023-04-02T10:15:57.365Z,47.89
2023-04-02T10:16:57.383Z,42.06
2023-04-02T10:17:57.324Z,44.50
2023-04-02T10:18:57.460Z,44.47
2023-04-02T10:19:57.488Z,40.78
2023-04-02T10:20:57.443Z,37.80
2023-04-02T10:21:57.584Z,30.31
2023-04-02T10:22:57.589Z,32.46
2023-04-02T10:23:57.720Z,43.64
2023-04-02T10:24:57.761Z,110.26
2023-04-02T10:25:57.782Z,68.53
2023-04-02T10:26:57.842Z,57.97
2023-04-02T10:27:57.790Z,33.39
2023-04-02T10:28:57.971Z,22.76
2023-04-02T10:29:57.877Z,22.84
2023-04-02T10:30:58.009Z,25.70
2023-04-02T10:31:58.024Z,26.10
2023-04-02T10:32:57.968Z,13.70
2023-04-02T10:33:57.959Z,14.50
2023-04-02T10:34:58.005Z,15.46
2023-04-02T10:35:58.018Z,18.21
2023-04-02T10:36:57.943Z,22.11
2023-04-02T10:37:57.945Z,26.95
2023-04-02T10:38:57.984Z,37.14
2023-04-02T10:39:57.949Z,55.04
2023-04-02T10:40:57.958Z,86.40
2023-04-02T10:41:57.977Z,60.00
2023-04-02T10:42:58.023Z,63.92
2023-04-02T10:44:06.163Z,60.34
2023-04-02T10:44:58.982Z,60.60
2023-04-02T10:45:58.038Z,60.56
2023-04-02T10:46:58.037Z,59.51
2023-04-02T10:47:57.964Z,61.46
2023-04-02T10:48:58.042Z,67.47
2023-04-02T10:49:58.003Z,67.78
2023-04-02T10:50:58.008Z,67.15
2023-04-02T10:51:58.033Z,53.71
2023-04-02T10:52:58.055Z,49.27
2023-04-02T10:53:58.022Z,58.16
2023-04-02T10:54:58.083Z,58.11
2023-04-02T10:55:58.169Z,60.13
2023-04-02T10:56:58.295Z,63.63
2023-04-02T10:57:58.134Z,72.90
2023-04-02T10:58:58.216Z,73.51
2023-04-02T10:59:58.269Z,76.20
2023-04-02T11:00:58.223Z,83.96
2023-04-02T11:01:58.329Z,88.40
2023-04-02T11:02:58.344Z,78.78
2023-04-02T11:03:58.464Z,72.30
2023-04-02T11:04:59.920Z,67.97
2023-04-02T11:05:58.461Z,68.41
2023-04-02T11:07:11.172Z,77.21
2023-04-02T11:07:59.453Z,77.45
2023-04-02T11:08:58.431Z,79.80
2023-04-02T11:09:58.392Z,82.64
2023-04-02T11:10:58.400Z,83.49
2023-04-02T11:11:58.394Z,80.68
2023-04-02T11:12:58.356Z,52.34
2023-04-02T11:13:58.413Z,54.61
2023-04-02T11:14:58.353Z,45.49
2023-04-02T11:15:58.459Z,51.79
2023-04-02T11:16:58.346Z,46.13
2023-04-02T11:17:58.426Z,41.12
2023-04-02T11:18:58.477Z,38.93
2023-04-02T11:19:58.472Z,41.42
2023-04-02T11:20:58.475Z,47.80
2023-04-02T11:21:59.887Z,42.92
2023-04-02T11:22:58.590Z,54.59
2023-04-02T11:23:58.624Z,33.22
2023-04-02T11:24:58.697Z,37.89
2023-04-02T11:25:58.703Z,37.15
2023-04-02T11:26:58.730Z,38.38
2023-04-02T11:27:58.801Z,33.50
2023-04-02T11:28:58.837Z,29.99
2023-04-02T11:29:58.853Z,35.12
2023-04-02T11:30:58.910Z,34.14
2023-04-02T11:31:58.939Z,32.10
2023-04-02T11:32:59.023Z,39.16
2023-04-02T11:33:59.024Z,38.18
2023-04-02T11:35:06.370Z,34.67
2023-04-02T11:36:00.057Z,35.32
2023-04-02T11:36:58.992Z,36.77
2023-04-02T11:37:58.993Z,42.09
2023-04-02T11:39:04.603Z,43.48
2023-04-02T11:39:58.960Z,31.66
2023-04-02T11:40:59.061Z,34.56
2023-04-02T11:41:59.020Z,27.73
2023-04-02T11:42:58.973Z,34.18
2023-04-02T11:43:58.979Z,35.60
2023-04-02T11:44:59.012Z,38.01
2023-04-02T11:45:59.308Z,37.56
2023-04-02T11:46:59.059Z,46.98
2023-04-02T11:48:00.033Z,34.76
2023-04-02T11:48:58.920Z,36.20
2023-04-02T11:49:58.985Z,23.95
2023-04-02T11:50:58.999Z,26.23
2023-04-02T11:52:10.932Z,37.03
2023-04-02T11:52:58.907Z,39.88
2023-04-02T11:53:58.925Z,38.67
2023-04-02T11:54:58.894Z,48.17
2023-04-02T11:55:58.879Z,54.25
2023-04-02T11:56:58.995Z,47.40
2023-04-02T11:57:58.940Z,48.36
2023-04-02T11:58:58.904Z,47.23
2023-04-02T11:59:58.849Z,55.59
2023-04-02T12:00:58.887Z,47.69
2023-04-02T12:01:58.932Z,41.21
2023-04-02T12:02:58.882Z,47.91
2023-04-02T12:03:58.903Z,48.42
2023-04-02T12:04:58.926Z,48.70
2023-04-02T12:05:58.875Z,45.57
2023-04-02T12:06:58.868Z,96.85
2023-04-02T12:07:58.920Z,79.80
2023-04-02T12:08:58.890Z,68.12
2023-04-02T12:09:58.980Z,41.80
2023-04-02T12:10:58.967Z,24.53
2023-04-02T12:11:59.029Z,26.11
2023-04-02T12:12:59.177Z,29.74
2023-04-02T12:13:59.201Z,42.77
2023-04-02T12:14:59.256Z,81.25
2023-04-02T12:15:59.264Z,51.49
2023-04-02T12:16:59.331Z,35.66
2023-04-02T12:17:59.308Z,23.83
2023-04-02T12:18:59.429Z,35.36
2023-04-02T12:19:59.454Z,31.78
2023-04-02T12:20:59.437Z,34.95
2023-04-02T12:21:59.482Z,47.38
2023-04-02T12:22:59.611Z,58.45
2023-04-02T12:23:59.643Z,67.18
2023-04-02T12:24:59.665Z,64.33
2023-04-02T12:25:59.743Z,51.29
2023-04-02T12:26:59.725Z,34.00
2023-04-02T12:27:59.833Z,24.44
2023-04-02T12:28:59.848Z,23.26
2023-04-02T12:29:59.909Z,22.51
2023-04-02T12:31:00.081Z,14.57
2023-04-02T12:32:00.121Z,14.54
2023-04-02T12:33:01.010Z,23.66
2023-04-02T12:34:00.136Z,37.55
2023-04-02T12:35:00.169Z,31.30
2023-04-02T12:36:00.211Z,23.47
2023-04-02T12:37:00.116Z,33.65